sensor_id;sensor_type;location;lat;lon;timestamp;temperature;humidity
9537;DHT22;4807;48.024;11.726;2022-11-15T09:42:44;8.20;99.90
9537;DHT22;4807;48.024;11.726;2022-11-15T09:46:30;8.30;99.90
9537;DHT22;4807;48.024;11.726;2022-11-15T09:50:08;8.60;99.90
9537;DHT22;4807;48.024;11.726;2022-11-15T09:53:29;8.70;99.90
9537;DHT22;4807;48.024;11.726;2022-11-15T09:57:09;8.90;99.90
9537;DHT22;4807;48.024;11.726;2022-11-15T10:00:25;9.10;99.90
9537;DHT22;4807;48.024;11.726;2022-11-15T10:03:57;9.20;99.90
9537;DHT22;4807;48.024;11.726;2022-11-15T10:07:13;9.30;99.70
9537;DHT22;4807;48.024;11.726;2022-11-15T10:10:31;9.50;99.90
9537;DHT22;4807;48.024;11.726;2022-11-15T10:13:46;9.60;99.50
9537;DHT22;4807;48.024;11.726;2022-11-15T10:17:28;9.60;99.60
9537;DHT22;4807;48.024;11.726;2022-11-15T10:20:57;9.70;99.10
9537;DHT22;4807;48.024;11.726;2022-11-15T10:24:11;9.80;98.40
9537;DHT22;4807;48.024;11.726;2022-11-15T10:27:22;9.80;98.50
9537;DHT22;4807;48.024;11.726;2022-11-15T10:30:34;9.90;98.60
9537;DHT22;4807;48.024;11.726;2022-11-15T10:33:44;9.90;98.40
9537;DHT22;4807;48.024;11.726;2022-11-15T10:36:58;10.10;98.10
9537;DHT22;4807;48.024;11.726;2022-11-15T10:40:17;10.20;97.60
9537;DHT22;4807;48.024;11.726;2022-11-15T10:43:27;10.20;97.30
9537;DHT22;4807;48.024;11.726;2022-11-15T10:46:37;10.40;96.00
9537;DHT22;4807;48.024;11.726;2022-11-15T10:50:03;10.50;96.50
9537;DHT22;4807;48.024;11.726;2022-11-15T10:53:21;10.60;95.60
9537;DHT22;4807;48.024;11.726;2022-11-15T10:56:32;10.70;95.20
9537;DHT22;4807;48.024;11.726;2022-11-15T10:59:44;10.80;94.90
9537;DHT22;4807;48.024;11.726;2022-11-15T11:03:00;10.80;94.80
9537;DHT22;4807;48.024;11.726;2022-11-15T11:06:11;10.80;94.90
9537;DHT22;4807;48.024;11.726;2022-11-15T11:09:28;10.90;94.80
9537;DHT22;4807;48.024;11.726;2022-11-15T11:12:40;10.90;94.80
9537;DHT22;4807;48.024;11.726;2022-11-15T11:15:52;11.00;95.70
9537;DHT22;4807;48.024;11.726;2022-11-15T11:19:16;11.00;94.90
9537;DHT22;4807;48.024;11.726;2022-11-15T11:22:41;11.10;94.20
9537;DHT22;4807;48.024;11.726;2022-11-15T11:26:19;11.20;94.80
9537;DHT22;4807;48.024;11.726;2022-11-15T11:29:53;11.20;93.80
9537;DHT22;4807;48.024;11.726;2022-11-15T11:33:16;11.30;94.00
9537;DHT22;4807;48.024;11.726;2022-11-15T11:36:37;11.30;94.10
9537;DHT22;4807;48.024;11.726;2022-11-15T11:39:59;11.30;93.60
9537;DHT22;4807;48.024;11.726;2022-11-15T11:43:24;11.40;93.30
9537;DHT22;4807;48.024;11.726;2022-11-15T11:46:49;11.50;92.50
9537;DHT22;4807;48.024;11.726;2022-11-15T11:50:11;11.50;92.90
9537;DHT22;4807;48.024;11.726;2022-11-15T11:53:27;11.40;92.50
9537;DHT22;4807;48.024;11.726;2022-11-15T11:56:41;11.50;93.20
9537;DHT22;4807;48.024;11.726;2022-11-15T11:59:55;11.50;93.60
9537;DHT22;4807;48.024;11.726;2022-11-15T12:03:24;11.50;94.00
9537;DHT22;4807;48.024;11.726;2022-11-15T12:06:40;11.60;93.70
9537;DHT22;4807;48.024;11.726;2022-11-15T12:09:57;11.60;93.30
9537;DHT22;4807;48.024;11.726;2022-11-15T12:13:13;11.70;91.90
9537;DHT22;4807;48.024;11.726;2022-11-15T12:16:27;11.70;92.90
9537;DHT22;4807;48.024;11.726;2022-11-15T12:19:38;11.60;92.60
9537;DHT22;4807;48.024;11.726;2022-11-15T12:22:52;11.70;92.30
9537;DHT22;4807;48.024;11.726;2022-11-15T12:26:06;11.70;92.40
9537;DHT22;4807;48.024;11.726;2022-11-15T12:29:23;11.70;92.20
9537;DHT22;4807;48.024;11.726;2022-11-15T12:32:38;11.70;92.50
9537;DHT22;4807;48.024;11.726;2022-11-15T12:35:59;11.70;92.70
9537;DHT22;4807;48.024;11.726;2022-11-15T12:39:10;11.80;94.00
9537;DHT22;4807;48.024;11.726;2022-11-15T12:42:36;11.80;92.60
9537;DHT22;4807;48.024;11.726;2022-11-15T12:45:49;11.80;92.20
9537;DHT22;4807;48.024;11.726;2022-11-15T12:49:00;11.90;91.60
9537;DHT22;4807;48.024;11.726;2022-11-15T12:52:09;11.90;91.90
9537;DHT22;4807;48.024;11.726;2022-11-15T12:55:32;11.90;91.20
9537;DHT22;4807;48.024;11.726;2022-11-15T12:58:42;11.90;90.40
9537;DHT22;4807;48.024;11.726;2022-11-15T13:01:58;11.90;90.70
9537;DHT22;4807;48.024;11.726;2022-11-15T13:09:52;12.10;90.70
9537;DHT22;4807;48.024;11.726;2022-11-15T13:13:04;12.10;90.90
9537;DHT22;4807;48.024;11.726;2022-11-15T13:16:18;12.20;91.00
9537;DHT22;4807;48.024;11.726;2022-11-15T13:19:29;12.40;90.80
9537;DHT22;4807;48.024;11.726;2022-11-15T13:22:46;12.50;90.60
9537;DHT22;4807;48.024;11.726;2022-11-15T13:26:11;12.60;90.80
9537;DHT22;4807;48.024;11.726;2022-11-15T13:29:23;12.60;90.80
9537;DHT22;4807;48.024;11.726;2022-11-15T13:32:31;12.40;91.00
9537;DHT22;4807;48.024;11.726;2022-11-15T13:35:41;12.30;91.50
9537;DHT22;4807;48.024;11.726;2022-11-15T13:39:02;12.10;91.50
9537;DHT22;4807;48.024;11.726;2022-11-15T13:42:14;12.20;91.90
9537;DHT22;4807;48.024;11.726;2022-11-15T13:45:25;12.00;92.10
9537;DHT22;4807;48.024;11.726;2022-11-15T13:48:34;12.00;92.60
9537;DHT22;4807;48.024;11.726;2022-11-15T13:51:45;11.90;93.00
9537;DHT22;4807;48.024;11.726;2022-11-15T13:55:00;11.90;93.00
9537;DHT22;4807;48.024;11.726;2022-11-15T13:58:13;11.90;93.00
9537;DHT22;4807;48.024;11.726;2022-11-15T14:01:30;11.90;93.00
9537;DHT22;4807;48.024;11.726;2022-11-15T14:04:46;11.90;93.10
9537;DHT22;4807;48.024;11.726;2022-11-15T14:07:59;11.80;93.70
9537;DHT22;4807;48.024;11.726;2022-11-15T14:11:14;11.80;94.10
9537;DHT22;4807;48.024;11.726;2022-11-15T14:14:26;11.70;94.40
9537;DHT22;4807;48.024;11.726;2022-11-15T14:17:36;11.50;94.40
9537;DHT22;4807;48.024;11.726;2022-11-15T14:21:06;11.40;94.80
9537;DHT22;4807;48.024;11.726;2022-11-15T14:24:16;11.20;95.10
9537;DHT22;4807;48.024;11.726;2022-11-15T14:27:27;11.20;95.60
9537;DHT22;4807;48.024;11.726;2022-11-15T14:30:38;11.10;95.60
9537;DHT22;4807;48.024;11.726;2022-11-15T14:33:47;11.10;95.70
9537;DHT22;4807;48.024;11.726;2022-11-15T14:36:56;11.10;95.90
9537;DHT22;4807;48.024;11.726;2022-11-15T14:40:05;10.90;96.20
9537;DHT22;4807;48.024;11.726;2022-11-15T14:43:17;10.70;96.60
9537;DHT22;4807;48.024;11.726;2022-11-15T14:46:26;10.70;96.80
9537;DHT22;4807;48.024;11.726;2022-11-15T14:49:34;10.60;96.90
9537;DHT22;4807;48.024;11.726;2022-11-15T14:52:43;10.50;97.50
9537;DHT22;4807;48.024;11.726;2022-11-15T14:55:51;10.40;97.30
9537;DHT22;4807;48.024;11.726;2022-11-15T14:59:01;10.30;97.40
9537;DHT22;4807;48.024;11.726;2022-11-15T15:02:15;10.10;98.00
9537;DHT22;4807;48.024;11.726;2022-11-15T15:05:29;10.00;98.20
9537;DHT22;4807;48.024;11.726;2022-11-15T15:08:39;9.80;99.40
9537;DHT22;4807;48.024;11.726;2022-11-15T15:11:48;9.80;99.70
9537;DHT22;4807;48.024;11.726;2022-11-15T15:14:58;9.60;99.80
9537;DHT22;4807;48.024;11.726;2022-11-15T15:18:06;9.30;99.90
9537;DHT22;4807;48.024;11.726;2022-11-15T15:21:20;9.10;99.90
9537;DHT22;4807;48.024;11.726;2022-11-15T15:24:30;8.90;99.90
9537;DHT22;4807;48.024;11.726;2022-11-15T15:27:38;8.70;99.90
9537;DHT22;4807;48.024;11.726;2022-11-15T15:30:48;8.50;99.90
9537;DHT22;4807;48.024;11.726;2022-11-15T15:33:57;8.40;99.90
9537;DHT22;4807;48.024;11.726;2022-11-15T15:37:11;8.20;99.90
9537;DHT22;4807;48.024;11.726;2022-11-15T15:40:33;8.00;99.90
9537;DHT22;4807;48.024;11.726;2022-11-15T15:43:41;7.90;99.90
9537;DHT22;4807;48.024;11.726;2022-11-15T15:46:52;7.70;99.90
9537;DHT22;4807;48.024;11.726;2022-11-15T15:50:00;7.70;99.90
9537;DHT22;4807;48.024;11.726;2022-11-15T15:53:10;7.60;99.90
9537;DHT22;4807;48.024;11.726;2022-11-15T15:56:19;7.40;99.90
9537;DHT22;4807;48.024;11.726;2022-11-15T15:59:27;8.90;99.90
9537;DHT22;4807;48.024;11.726;2022-11-15T16:02:37;7.10;99.90
9537;DHT22;4807;48.024;11.726;2022-11-15T16:05:46;7.00;99.90
9537;DHT22;4807;48.024;11.726;2022-11-15T16:08:54;6.60;99.90
9537;DHT22;4807;48.024;11.726;2022-11-15T16:12:20;6.60;99.90
9537;DHT22;4807;48.024;11.726;2022-11-15T16:15:30;6.50;99.90
9537;DHT22;4807;48.024;11.726;2022-11-15T16:18:41;6.60;99.90
9537;DHT22;4807;48.024;11.726;2022-11-15T16:21:50;6.60;99.90
9537;DHT22;4807;48.024;11.726;2022-11-15T16:24:58;6.60;99.90
9537;DHT22;4807;48.024;11.726;2022-11-15T16:28:15;6.60;99.90
9537;DHT22;4807;48.024;11.726;2022-11-15T16:31:25;6.50;99.90
9537;DHT22;4807;48.024;11.726;2022-11-15T16:34:35;6.40;99.90
9537;DHT22;4807;48.024;11.726;2022-11-15T16:37:49;6.40;99.90
9537;DHT22;4807;48.024;11.726;2022-11-15T16:40:57;6.40;99.90
9537;DHT22;4807;48.024;11.726;2022-11-15T16:44:07;6.30;99.90
9537;DHT22;4807;48.024;11.726;2022-11-15T16:47:16;6.30;99.90
9537;DHT22;4807;48.024;11.726;2022-11-15T16:50:30;6.30;99.90
9537;DHT22;4807;48.024;11.726;2022-11-15T16:53:41;6.20;99.90
9537;DHT22;4807;48.024;11.726;2022-11-15T16:56:50;6.20;99.90
9537;DHT22;4807;48.024;11.726;2022-11-15T16:59:59;6.20;99.90
9537;DHT22;4807;48.024;11.726;2022-11-15T17:03:07;6.30;99.90
9537;DHT22;4807;48.024;11.726;2022-11-15T17:06:17;6.20;99.90
9537;DHT22;4807;48.024;11.726;2022-11-15T17:09:26;6.20;99.90
9537;DHT22;4807;48.024;11.726;2022-11-15T17:12:34;6.20;99.90
9537;DHT22;4807;48.024;11.726;2022-11-15T17:15:43;6.20;99.90
9537;DHT22;4807;48.024;11.726;2022-11-15T17:18:51;6.20;99.90
9537;DHT22;4807;48.024;11.726;2022-11-15T17:22:01;6.20;99.90
9537;DHT22;4807;48.024;11.726;2022-11-15T17:25:10;6.20;99.90
9537;DHT22;4807;48.024;11.726;2022-11-15T17:28:18;6.20;99.90
9537;DHT22;4807;48.024;11.726;2022-11-15T17:31:27;6.20;99.90
9537;DHT22;4807;48.024;11.726;2022-11-15T17:34:39;6.10;99.90
9537;DHT22;4807;48.024;11.726;2022-11-15T17:37:49;6.10;99.90
9537;DHT22;4807;48.024;11.726;2022-11-15T17:41:02;6.00;99.90
9537;DHT22;4807;48.024;11.726;2022-11-15T17:44:11;5.90;99.90
9537;DHT22;4807;48.024;11.726;2022-11-15T17:47:20;6.00;99.90
9537;DHT22;4807;48.024;11.726;2022-11-15T17:50:30;6.00;99.90
9537;DHT22;4807;48.024;11.726;2022-11-15T17:53:41;5.90;99.90
9537;DHT22;4807;48.024;11.726;2022-11-15T17:56:51;6.00;99.90
9537;DHT22;4807;48.024;11.726;2022-11-15T18:00:00;6.00;99.90
9537;DHT22;4807;48.024;11.726;2022-11-15T18:03:09;5.90;99.90
9537;DHT22;4807;48.024;11.726;2022-11-15T18:06:19;5.70;99.90
9537;DHT22;4807;48.024;11.726;2022-11-15T18:09:30;5.60;99.90
9537;DHT22;4807;48.024;11.726;2022-11-15T18:12:38;5.60;99.90
9537;DHT22;4807;48.024;11.726;2022-11-15T18:15:53;5.50;99.90
9537;DHT22;4807;48.024;11.726;2022-11-15T18:19:02;5.50;99.90
9537;DHT22;4807;48.024;11.726;2022-11-15T18:22:14;5.40;99.90
9537;DHT22;4807;48.024;11.726;2022-11-15T18:25:26;5.40;99.90
9537;DHT22;4807;48.024;11.726;2022-11-15T18:28:36;5.40;99.90
9537;DHT22;4807;48.024;11.726;2022-11-15T18:31:47;5.40;99.90
9537;DHT22;4807;48.024;11.726;2022-11-15T18:34:56;5.50;99.90
9537;DHT22;4807;48.024;11.726;2022-11-15T18:38:05;5.50;99.90
9537;DHT22;4807;48.024;11.726;2022-11-15T18:41:16;5.50;99.90
9537;DHT22;4807;48.024;11.726;2022-11-15T18:44:27;5.60;99.90
9537;DHT22;4807;48.024;11.726;2022-11-15T18:47:36;5.60;99.90
9537;DHT22;4807;48.024;11.726;2022-11-15T18:50:46;5.60;99.90
9537;DHT22;4807;48.024;11.726;2022-11-15T18:54:00;5.60;99.90
9537;DHT22;4807;48.024;11.726;2022-11-15T18:57:11;5.60;99.90
9537;DHT22;4807;48.024;11.726;2022-11-15T19:00:20;5.60;99.90
9537;DHT22;4807;48.024;11.726;2022-11-15T19:03:31;5.60;99.90
9537;DHT22;4807;48.024;11.726;2022-11-15T19:06:41;5.60;99.90
9537;DHT22;4807;48.024;11.726;2022-11-15T19:09:52;5.70;99.90
9537;DHT22;4807;48.024;11.726;2022-11-15T19:13:02;5.70;99.90
9537;DHT22;4807;48.024;11.726;2022-11-15T19:16:12;5.70;99.90
9537;DHT22;4807;48.024;11.726;2022-11-15T19:19:23;5.70;99.90
9537;DHT22;4807;48.024;11.726;2022-11-15T19:22:34;5.60;99.90
9537;DHT22;4807;48.024;11.726;2022-11-15T19:25:42;5.60;99.90
9537;DHT22;4807;48.024;11.726;2022-11-15T19:28:53;5.40;99.90
9537;DHT22;4807;48.024;11.726;2022-11-15T19:32:05;5.40;99.90
9537;DHT22;4807;48.024;11.726;2022-11-15T19:35:13;5.40;99.90
9537;DHT22;4807;48.024;11.726;2022-11-15T19:38:22;5.40;99.90
9537;DHT22;4807;48.024;11.726;2022-11-15T19:41:31;5.30;99.90
9537;DHT22;4807;48.024;11.726;2022-11-15T19:44:41;5.30;99.90
9537;DHT22;4807;48.024;11.726;2022-11-15T19:47:50;5.30;99.90
9537;DHT22;4807;48.024;11.726;2022-11-15T19:51:00;5.30;99.90
9537;DHT22;4807;48.024;11.726;2022-11-15T19:54:11;5.30;99.90
9537;DHT22;4807;48.024;11.726;2022-11-15T19:57:23;5.30;99.90
9537;DHT22;4807;48.024;11.726;2022-11-15T20:00:34;5.30;99.90
9537;DHT22;4807;48.024;11.726;2022-11-15T20:03:43;5.30;99.90
9537;DHT22;4807;48.024;11.726;2022-11-15T20:06:53;5.30;99.90
9537;DHT22;4807;48.024;11.726;2022-11-15T20:10:01;5.40;99.90
9537;DHT22;4807;48.024;11.726;2022-11-15T20:13:11;5.50;99.90
9537;DHT22;4807;48.024;11.726;2022-11-15T20:16:22;5.50;99.90
9537;DHT22;4807;48.024;11.726;2022-11-15T20:19:31;5.50;99.90
9537;DHT22;4807;48.024;11.726;2022-11-15T20:22:42;5.50;99.90
9537;DHT22;4807;48.024;11.726;2022-11-15T20:25:51;5.60;99.90
9537;DHT22;4807;48.024;11.726;2022-11-15T20:28:59;5.60;99.90
9537;DHT22;4807;48.024;11.726;2022-11-15T20:32:11;5.70;99.90
9537;DHT22;4807;48.024;11.726;2022-11-15T20:35:20;5.80;99.90
9537;DHT22;4807;48.024;11.726;2022-11-15T20:38:29;5.80;99.90
9537;DHT22;4807;48.024;11.726;2022-11-15T20:41:37;5.80;99.90
9537;DHT22;4807;48.024;11.726;2022-11-15T20:44:47;5.90;99.90
9537;DHT22;4807;48.024;11.726;2022-11-15T20:47:58;5.90;99.90
9537;DHT22;4807;48.024;11.726;2022-11-15T20:51:08;5.80;99.90
9537;DHT22;4807;48.024;11.726;2022-11-15T20:54:18;5.00;99.90
9537;DHT22;4807;48.024;11.726;2022-11-15T20:57:27;6.10;99.90
9537;DHT22;4807;48.024;11.726;2022-11-15T21:00:36;6.10;99.90
9537;DHT22;4807;48.024;11.726;2022-11-15T21:03:46;6.00;99.90
9537;DHT22;4807;48.024;11.726;2022-11-15T21:06:54;5.80;99.90
9537;DHT22;4807;48.024;11.726;2022-11-15T21:10:04;5.80;99.90
9537;DHT22;4807;48.024;11.726;2022-11-15T21:13:30;5.80;99.90
9537;DHT22;4807;48.024;11.726;2022-11-15T21:16:39;5.80;99.90
9537;DHT22;4807;48.024;11.726;2022-11-15T21:19:48;5.90;99.90
9537;DHT22;4807;48.024;11.726;2022-11-15T21:22:57;5.90;99.90
9537;DHT22;4807;48.024;11.726;2022-11-15T21:26:05;6.00;99.90
9537;DHT22;4807;48.024;11.726;2022-11-15T21:29:13;6.00;99.90
9537;DHT22;4807;48.024;11.726;2022-11-15T21:32:24;6.00;99.90
9537;DHT22;4807;48.024;11.726;2022-11-15T21:35:36;6.00;99.90
9537;DHT22;4807;48.024;11.726;2022-11-15T21:38:44;6.00;99.90
9537;DHT22;4807;48.024;11.726;2022-11-15T21:41:52;6.00;99.90
9537;DHT22;4807;48.024;11.726;2022-11-15T21:45:02;6.10;99.90
9537;DHT22;4807;48.024;11.726;2022-11-15T21:48:11;6.10;99.90
9537;DHT22;4807;48.024;11.726;2022-11-15T21:51:22;6.00;99.90
9537;DHT22;4807;48.024;11.726;2022-11-15T21:54:31;6.00;99.90
9537;DHT22;4807;48.024;11.726;2022-11-15T21:57:39;5.90;99.90
9537;DHT22;4807;48.024;11.726;2022-11-15T22:00:48;5.90;99.90
9537;DHT22;4807;48.024;11.726;2022-11-15T22:04:15;5.90;99.90
9537;DHT22;4807;48.024;11.726;2022-11-15T22:07:24;5.80;99.90
9537;DHT22;4807;48.024;11.726;2022-11-15T22:10:33;5.80;99.90
9537;DHT22;4807;48.024;11.726;2022-11-15T22:13:41;5.70;99.90
9537;DHT22;4807;48.024;11.726;2022-11-15T22:16:50;5.70;99.90
9537;DHT22;4807;48.024;11.726;2022-11-15T22:19:58;5.60;99.90
9537;DHT22;4807;48.024;11.726;2022-11-15T22:23:30;5.60;99.90
9537;DHT22;4807;48.024;11.726;2022-11-15T22:26:39;5.50;99.90
9537;DHT22;4807;48.024;11.726;2022-11-15T22:29:48;5.40;99.90
9537;DHT22;4807;48.024;11.726;2022-11-15T22:32:56;5.30;99.90
9537;DHT22;4807;48.024;11.726;2022-11-15T22:36:05;5.20;99.90
9537;DHT22;4807;48.024;11.726;2022-11-15T22:39:16;5.20;99.90
9537;DHT22;4807;48.024;11.726;2022-11-15T22:42:24;5.10;99.90
9537;DHT22;4807;48.024;11.726;2022-11-15T22:45:33;5.00;99.90
9537;DHT22;4807;48.024;11.726;2022-11-15T22:48:41;5.10;99.90
9537;DHT22;4807;48.024;11.726;2022-11-15T22:51:53;5.10;99.90
9537;DHT22;4807;48.024;11.726;2022-11-15T22:55:03;5.10;99.90
9537;DHT22;4807;48.024;11.726;2022-11-15T22:58:12;5.10;99.90
9537;DHT22;4807;48.024;11.726;2022-11-15T23:01:21;5.10;99.90
9537;DHT22;4807;48.024;11.726;2022-11-15T23:04:29;5.30;99.90
9537;DHT22;4807;48.024;11.726;2022-11-15T23:07:37;5.30;99.90
9537;DHT22;4807;48.024;11.726;2022-11-15T23:10:47;5.40;99.90
9537;DHT22;4807;48.024;11.726;2022-11-15T23:14:13;5.30;99.90
9537;DHT22;4807;48.024;11.726;2022-11-15T23:17:21;5.40;99.90
9537;DHT22;4807;48.024;11.726;2022-11-15T23:20:30;5.20;99.90
9537;DHT22;4807;48.024;11.726;2022-11-15T23:23:49;5.00;99.90
9537;DHT22;4807;48.024;11.726;2022-11-15T23:27:00;4.90;99.90
9537;DHT22;4807;48.024;11.726;2022-11-15T23:30:10;4.90;99.90
9537;DHT22;4807;48.024;11.726;2022-11-15T23:33:39;4.90;99.90
9537;DHT22;4807;48.024;11.726;2022-11-15T23:37:06;4.90;99.90
9537;DHT22;4807;48.024;11.726;2022-11-15T23:40:16;5.90;99.90
9537;DHT22;4807;48.024;11.726;2022-11-15T23:43:26;5.10;99.90
9537;DHT22;4807;48.024;11.726;2022-11-15T23:46:34;5.30;99.90
9537;DHT22;4807;48.024;11.726;2022-11-15T23:49:43;5.30;99.90
9537;DHT22;4807;48.024;11.726;2022-11-15T23:52:51;5.40;99.90
9537;DHT22;4807;48.024;11.726;2022-11-15T23:56:01;5.40;99.90
9537;DHT22;4807;48.024;11.726;2022-11-15T23:59:13;5.40;99.90
